Time;durP1;ratioP1;P1;durP2;ratioP2;P2;SDS_P1;SDS_P2;PMS_P1;PMS_P2;Temp;Humidity;BMP_temperature;BMP_pressure;BME280_temperature;BME280_humidity;BME280_pressure;Samples;Min_cycle;Max_cycle;Signal;HPM_P1;HPM_P2
2023/10/14 00:00:28;;;;;;;7.73;7.13;;;19.10;65.20;;;;;;7815501;22;20212;-81
2023/10/14 00:03:32;;;;;;;8.90;7.53;;;19.00;65.30;;;;;;7815348;22;20215;-81
2023/10/14 00:06:38;;;;;;;9.17;6.77;;;19.00;65.60;;;;;;7789894;22;20216;-82
2023/10/14 00:09:43;;;;;;;6.43;5.50;;;18.90;65.70;;;;;;7814458;22;20530;-82
2023/10/14 00:12:53;;;;;;;13.30;6.63;;;18.80;66.20;;;;;;7815421;22;20384;-81
2023/10/14 00:16:00;;;;;;;7.73;6.47;;;18.70;66.50;;;;;;7814616;22;20212;-82
2023/10/14 00:19:05;;;;;;;10.07;7.10;;;18.70;66.90;;;;;;7811933;22;20215;-82
2023/10/14 00:22:08;;;;;;;11.10;7.17;;;18.60;67.60;;;;;;7816093;22;20214;-80
2023/10/14 00:25:19;;;;;;;7.80;6.40;;;18.40;68.10;;;;;;7799201;22;20230;-84
2023/10/14 00:28:24;;;;;;;9.13;7.10;;;18.40;69.10;;;;;;7814146;22;20692;-81
2023/10/14 00:31:27;;;;;;;9.07;6.67;;;18.30;69.10;;;;;;7814271;22;20265;-82
2023/10/14 00:34:32;;;;;;;9.30;5.97;;;18.20;68.90;;;;;;7813777;22;20298;-82
2023/10/14 00:37:36;;;;;;;9.53;6.40;;;18.20;69.20;;;;;;7770979;22;20212;-82
2023/10/14 00:40:45;;;;;;;10.80;5.80;;;18.20;68.40;;;;;;7804291;22;20760;-82
2023/10/14 00:43:48;;;;;;;6.83;5.90;;;18.20;68.20;;;;;;7813455;22;20220;-82
2023/10/14 00:46:52;;;;;;;8.03;5.67;;;18.20;68.60;;;;;;7813138;22;20723;-81
2023/10/14 00:49:56;;;;;;;7.20;5.20;;;18.20;68.30;;;;;;7811473;22;20265;-81
2023/10/14 00:53:05;;;;;;;7.47;5.60;;;18.20;68.50;;;;;;7814505;22;20219;-82
2023/10/14 00:56:17;;;;;;;8.33;5.73;;;18.20;68.70;;;;;;7813693;22;20219;-81
2023/10/14 00:59:21;;;;;;;10.03;6.03;;;18.20;68.80;;;;;;7814489;22;20219;-80
2023/10/14 01:02:29;;;;;;;9.57;5.43;;;18.30;68.00;;;;;;7814252;22;20216;-81
2023/10/14 01:05:35;;;;;;;9.97;6.00;;;18.50;67.60;;;;;;7811786;22;20213;-84
2023/10/14 01:08:42;;;;;;;11.40;5.83;;;18.50;67.80;;;;;;7816142;22;20242;-81
2023/10/14 01:11:47;;;;;;;11.13;5.87;;;18.60;67.40;;;;;;7815262;22;20563;-81
2023/10/14 01:14:52;;;;;;;9.37;5.63;;;18.60;67.70;;;;;;7816840;22;20219;-79
2023/10/14 01:17:55;;;;;;;8.47;5.50;;;18.50;68.10;;;;;;7816581;22;20722;-81
2023/10/14 01:20:59;;;;;;;16.07;6.00;;;18.50;68.10;;;;;;7814157;22;20342;-81
2023/10/14 01:24:15;;;;;;;12.00;6.17;;;18.50;68.10;;;;;;7801949;22;20220;-80
2023/10/14 01:27:21;;;;;;;9.30;5.53;;;18.50;68.30;;;;;;7816310;22;20700;-80
2023/10/14 01:30:26;;;;;;;8.40;5.50;;;18.40;68.30;;;;;;7813898;22;20212;-80
2023/10/14 01:33:35;;;;;;;9.40;5.83;;;18.30;68.70;;;;;;7816771;22;20216;-81
2023/10/14 01:36:41;;;;;;;9.13;5.53;;;18.30;68.20;;;;;;7817935;22;20212;-80
2023/10/14 01:39:48;;;;;;;6.03;5.40;;;18.30;68.40;;;;;;7816742;22;20246;-80
2023/10/14 01:42:56;;;;;;;11.60;5.53;;;18.30;68.80;;;;;;7804498;22;20747;-83
2023/10/14 01:46:08;;;;;;;5.67;5.20;;;18.30;68.50;;;;;;7792222;22;20216;-81
2023/10/14 01:49:17;;;;;;;11.40;6.00;;;18.40;68.40;;;;;;7801543;22;20558;-81
2023/10/14 01:52:20;;;;;;;7.50;5.40;;;18.40;68.70;;;;;;7813901;22;20310;-81
2023/10/14 01:55:25;;;;;;;8.97;5.30;;;18.40;69.20;;;;;;7817171;22;20293;-81
2023/10/14 01:58:33;;;;;;;5.43;4.93;;;18.30;69.90;;;;;;7816908;22;20209;-80
2023/10/14 02:01:41;;;;;;;6.37;5.67;;;18.20;70.10;;;;;;7816733;22;20219;-80
2023/10/14 02:04:46;;;;;;;6.57;5.37;;;18.10;70.20;;;;;;7817352;22;20215;-80
2023/10/14 02:07:52;;;;;;;7.00;5.63;;;18.10;70.80;;;;;;7815917;22;20230;-81
2023/10/14 02:10:59;;;;;;;6.93;5.40;;;18.00;70.50;;;;;;7788239;22;20218;-79
2023/10/14 02:14:06;;;;;;;6.60;5.60;;;18.00;70.50;;;;;;7815704;22;20285;-82
2023/10/14 02:17:11;;;;;;;7.70;6.03;;;18.00;71.10;;;;;;7816585;22;20766;-81
2023/10/14 02:20:21;;;;;;;11.53;5.47;;;18.00;71.20;;;;;;7790271;22;20214;-80
2023/10/14 02:23:26;;;;;;;6.67;6.23;;;18.00;71.40;;;;;;7812514;22;20285;-81
2023/10/14 02:26:32;;;;;;;6.63;5.97;;;17.90;71.20;;;;;;7811551;22;20211;-80
2023/10/14 02:29:35;;;;;;;5.83;5.20;;;18.00;71.20;;;;;;7814593;22;20626;-81
2023/10/14 02:32:39;;;;;;;8.57;5.57;;;17.90;71.10;;;;;;7813586;22;20815;-81
2023/10/14 02:35:42;;;;;;;6.80;5.70;;;18.00;71.10;;;;;;7815232;22;20216;-80
2023/10/14 02:38:53;;;;;;;7.00;5.57;;;18.00;71.00;;;;;;7817198;22;20288;-80
2023/10/14 02:42:06;;;;;;;6.80;6.17;;;18.00;70.90;;;;;;7815897;22;20216;-80
2023/10/14 02:45:12;;;;;;;9.67;5.73;;;18.00;70.80;;;;;;7815057;22;20212;-81
2023/10/14 02:48:19;;;;;;;7.83;5.50;;;18.00;70.50;;;;;;7815192;22;20292;-81
2023/10/14 02:51:29;;;;;;;7.97;5.60;;;18.00;70.10;;;;;;7813277;22;20680;-82
2023/10/14 02:54:34;;;;;;;6.10;5.50;;;18.10;69.60;;;;;;7814735;22;20220;-80
2023/10/14 02:57:38;;;;;;;6.70;5.87;;;18.30;68.90;;;;;;7816343;22;20216;-80
2023/10/14 03:00:42;;;;;;;6.63;5.50;;;18.20;68.90;;;;;;7789330;22;20219;-79
2023/10/14 03:03:46;;;;;;;6.60;5.90;;;18.30;68.90;;;;;;7816102;22;20711;-80
2023/10/14 03:06:53;;;;;;;12.73;5.73;;;18.30;68.70;;;;;;7815454;22;20208;-80
2023/10/14 03:10:10;;;;;;;6.60;5.93;;;18.30;68.40;;;;;;7814005;22;20220;-81
2023/10/14 03:13:14;;;;;;;8.67;5.43;;;18.30;67.50;;;;;;7815203;22;20220;-80
2023/10/14 03:16:18;;;;;;;6.47;5.90;;;18.50;67.20;;;;;;7815803;22;20216;-80
2023/10/14 03:19:24;;;;;;;6.87;5.07;;;18.50;67.10;;;;;;7816237;22;20231;-79
2023/10/14 03:22:31;;;;;;;8.93;5.80;;;18.60;66.40;;;;;;7811406;22;20215;-80
2023/10/14 03:25:35;;;;;;;7.73;6.20;;;18.70;65.80;;;;;;7814902;22;20246;-79
2023/10/14 03:28:40;;;;;;;6.33;5.73;;;18.90;65.30;;;;;;7814447;22;20215;-78
2023/10/14 03:31:44;;;;;;;9.03;5.67;;;18.90;65.60;;;;;;7809451;22;20231;-81
2023/10/14 03:34:49;;;;;;;6.00;5.40;;;19.00;65.10;;;;;;7813659;22;20224;-79
2023/10/14 03:37:53;;;;;;;6.10;5.57;;;19.00;65.20;;;;;;7814509;22;20207;-79
2023/10/14 03:41:04;;;;;;;10.03;6.40;;;19.00;65.10;;;;;;7815248;22;20220;-81
2023/10/14 03:44:11;;;;;;;10.50;5.60;;;19.00;65.30;;;;;;7815130;22;20223;-80
2023/10/14 03:47:16;;;;;;;6.53;5.90;;;19.10;65.30;;;;;;7815437;22;20223;-81
2023/10/14 03:50:24;;;;;;;6.60;5.93;;;19.10;65.20;;;;;;7799822;22;20230;-80
2023/10/14 03:53:27;;;;;;;8.90;6.50;;;19.10;65.30;;;;;;7786678;22;20223;-80
2023/10/14 03:56:31;;;;;;;8.43;5.87;;;19.10;65.00;;;;;;7812691;22;20208;-80
2023/10/14 03:59:36;;;;;;;14.50;6.30;;;19.10;65.30;;;;;;7812905;22;20220;-81
2023/10/14 04:02:40;;;;;;;7.93;6.13;;;19.10;65.30;;;;;;7814873;22;20212;-80
2023/10/14 04:05:52;;;;;;;9.17;5.97;;;19.00;65.50;;;;;;7814255;22;20698;-80
2023/10/14 04:08:55;;;;;;;9.30;6.40;;;19.00;65.80;;;;;;7816677;22;20295;-80
2023/10/14 04:12:00;;;;;;;6.83;6.17;;;19.00;65.70;;;;;;7814369;22;20669;-79
2023/10/14 04:15:15;;;;;;;8.53;6.50;;;18.90;65.80;;;;;;7812805;22;20208;-79
2023/10/14 04:18:24;;;;;;;8.17;6.50;;;18.90;65.90;;;;;;7814310;22;20204;-81
2023/10/14 04:21:36;;;;;;;7.23;6.27;;;18.90;66.10;;;;;;7815789;22;20286;-80
2023/10/14 04:24:46;;;;;;;9.07;6.10;;;18.90;66.30;;;;;;7812326;22;20223;-80
2023/10/14 04:31:19;;;;;;;7.47;6.60;;;18.80;66.70;;;;;;7810493;22;20212;-80
2023/10/14 04:34:23;;;;;;;7.70;6.90;;;18.70;66.70;;;;;;7813557;22;20291;-80
2023/10/14 04:37:50;;;;;;;11.67;7.13;;;18.80;66.40;;;;;;7788176;22;20204;-80
2023/10/14 04:40:58;;;;;;;8.30;6.77;;;18.80;66.80;;;;;;7812534;22;20592;-81
2023/10/14 04:44:02;;;;;;;7.57;6.80;;;18.70;66.80;;;;;;7815124;22;20335;-80
2023/10/14 04:47:08;;;;;;;8.27;6.10;;;18.60;67.20;;;;;;7816854;22;20212;-80
2023/10/14 04:50:21;;;;;;;10.90;6.57;;;18.50;67.20;;;;;;7816110;22;20560;-80
2023/10/14 04:53:26;;;;;;;9.23;7.00;;;18.50;67.90;;;;;;7818954;22;20231;-82
2023/10/14 04:56:30;;;;;;;7.90;7.00;;;18.30;68.00;;;;;;7819211;22;20228;-85
2023/10/14 04:59:34;;;;;;;9.37;6.67;;;18.30;68.30;;;;;;7817914;22;20277;-84
2023/10/14 05:02:41;;;;;;;8.33;6.87;;;18.20;69.90;;;;;;7812931;22;20379;-84
2023/10/14 05:05:49;;;;;;;11.07;7.13;;;18.00;71.10;;;;;;7817898;22;20222;-83
2023/10/14 05:08:54;;;;;;;11.13;7.93;;;17.80;72.00;;;;;;7818324;22;20651;-83
2023/10/14 05:12:00;;;;;;;9.03;8.23;;;17.60;74.70;;;;;;7817409;22;20864;-85
2023/10/14 05:15:12;;;;;;;12.53;8.50;;;17.40;76.60;;;;;;7818130;22;20224;-86
2023/10/14 05:18:17;;;;;;;12.10;8.57;;;17.20;77.30;;;;;;7830520;22;20204;-87
2023/10/14 05:21:35;;;;;;;11.60;8.33;;;17.00;78.10;;;;;;7833530;22;20207;-85
2023/10/14 05:24:41;;;;;;;8.70;7.90;;;17.00;78.70;;;;;;7829458;22;20209;-85
2023/10/14 05:27:55;;;;;;;10.60;7.10;;;16.90;79.20;;;;;;7824097;22;20219;-84
2023/10/14 05:31:00;;;;;;;7.93;7.20;;;16.80;79.40;;;;;;7818509;22;20670;-85
2023/10/14 05:34:07;;;;;;;7.90;7.40;;;16.70;79.70;;;;;;7814723;22;20216;-83
2023/10/14 05:37:12;;;;;;;6.33;5.80;;;16.70;80.00;;;;;;7816720;22;20705;-84
2023/10/14 05:40:21;;;;;;;6.73;5.97;;;16.60;79.90;;;;;;7817645;22;20220;-84
2023/10/14 05:43:26;;;;;;;6.53;5.93;;;16.50;80.30;;;;;;7816970;22;20208;-84
2023/10/14 05:46:30;;;;;;;7.33;5.67;;;16.40;80.50;;;;;;7814872;22;20503;-83
2023/10/14 05:49:35;;;;;;;4.03;3.10;;;16.30;81.00;;;;;;7814767;22;20220;-84
2023/10/14 05:52:39;;;;;;;2.40;2.30;;;16.10;78.40;;;;;;7815973;22;20215;-85
2023/10/14 05:55:47;;;;;;;1.83;1.70;;;15.80;75.50;;;;;;7813713;22;20394;-84
2023/10/14 05:58:52;;;;;;;5.40;1.70;;;15.30;74.40;;;;;;7813280;22;20208;-84
2023/10/14 06:01:55;;;;;;;1.70;1.70;;;15.00;75.20;;;;;;7816943;22;20220;-85
2023/10/14 06:05:00;;;;;;;1.87;1.73;;;14.70;75.50;;;;;;7816114;22;20623;-84
2023/10/14 06:08:06;;;;;;;1.80;1.80;;;14.50;75.60;;;;;;7816563;22;20521;-84
2023/10/14 06:11:10;;;;;;;1.87;1.80;;;14.30;76.00;;;;;;7816976;22;20220;-84
2023/10/14 06:14:13;;;;;;;1.77;1.77;;;14.10;77.00;;;;;;7815724;22;20278;-83
2023/10/14 06:17:16;;;;;;;2.13;2.03;;;14.10;76.80;;;;;;7814056;22;20224;-85
2023/10/14 06:20:22;;;;;;;1.80;1.70;;;14.00;77.20;;;;;;7814286;22;20752;-83
2023/10/14 06:23:26;;;;;;;2.07;1.97;;;13.90;77.50;;;;;;7817278;22;20224;-85
2023/10/14 06:26:30;;;;;;;1.63;1.63;;;13.90;78.00;;;;;;7817154;22;20224;-83
2023/10/14 06:29:33;;;;;;;3.27;2.10;;;13.80;77.90;;;;;;7812408;22;20550;-84
2023/10/14 06:32:36;;;;;;;2.10;2.10;;;13.70;78.10;;;;;;7802617;22;20296;-82
2023/10/14 06:35:43;;;;;;;2.20;2.10;;;13.50;77.80;;;;;;7816735;22;20212;-84
2023/10/14 06:38:46;;;;;;;1.90;1.80;;;13.50;78.30;;;;;;7774042;22;20236;-83
2023/10/14 06:41:50;;;;;;;2.23;2.17;;;13.50;78.70;;;;;;7817032;22;20223;-84
2023/10/14 06:44:53;;;;;;;2.20;2.10;;;13.50;78.40;;;;;;7817355;22;20219;-83
2023/10/14 06:47:57;;;;;;;2.60;2.47;;;13.50;78.30;;;;;;7817175;22;20316;-83
2023/10/14 06:51:02;;;;;;;2.27;2.17;;;13.50;78.30;;;;;;7818344;22;20212;-82
2023/10/14 06:54:09;;;;;;;2.30;2.10;;;13.50;78.30;;;;;;7816256;22;20238;-84
2023/10/14 06:57:14;;;;;;;2.27;2.20;;;13.50;78.60;;;;;;7814293;22;20618;-81
2023/10/14 07:00:25;;;;;;;2.43;2.20;;;13.50;78.40;;;;;;7815418;22;20215;-79
2023/10/14 07:03:29;;;;;;;2.20;2.10;;;13.50;78.30;;;;;;7816860;22;20217;-77
2023/10/14 07:06:34;;;;;;;3.23;2.20;;;13.50;78.50;;;;;;7816578;22;20285;-78
2023/10/14 07:09:37;;;;;;;2.43;2.33;;;13.40;78.60;;;;;;7815808;22;20216;-84
2023/10/14 07:12:41;;;;;;;4.63;2.47;;;13.30;78.40;;;;;;7817453;22;20207;-86
2023/10/14 07:15:54;;;;;;;2.03;1.97;;;13.40;78.80;;;;;;7807405;22;20247;-83
2023/10/14 07:18:57;;;;;;;2.57;2.33;;;13.50;78.30;;;;;;7816348;22;20216;-85
2023/10/14 07:22:07;;;;;;;2.20;2.10;;;13.50;78.10;;;;;;7816795;22;20222;-83
2023/10/14 07:25:11;;;;;;;2.47;2.30;;;13.50;78.10;;;;;;7817134;22;20222;-84
2023/10/14 07:28:15;;;;;;;2.57;2.37;;;13.40;77.70;;;;;;7817217;22;20204;-84
2023/10/14 07:31:19;;;;;;;2.60;2.40;;;13.50;77.70;;;;;;7817856;22;20227;-84
2023/10/14 07:34:23;;;;;;;2.30;2.20;;;13.50;77.80;;;;;;7819110;22;20290;-85
2023/10/14 07:37:27;;;;;;;2.10;2.10;;;13.50;77.60;;;;;;7817818;22;20999;-83
2023/10/14 07:40:33;;;;;;;1.90;1.90;;;13.40;77.60;;;;;;7816307;22;20212;-84
2023/10/14 07:43:37;;;;;;;3.43;2.50;;;13.30;77.50;;;;;;7807255;22;20239;-83
2023/10/14 07:46:40;;;;;;;2.57;2.47;;;13.30;77.50;;;;;;7816465;22;20277;-84
2023/10/14 07:49:44;;;;;;;2.47;2.37;;;13.30;77.70;;;;;;7816866;22;20219;-84
2023/10/14 07:52:49;;;;;;;2.67;2.47;;;13.30;77.90;;;;;;7817346;22;20219;-84
2023/10/14 07:55:56;;;;;;;2.53;2.27;;;13.30;77.30;;;;;;7818159;22;20234;-86
2023/10/14 07:59:01;;;;;;;3.50;2.60;;;13.30;77.20;;;;;;7815396;22;20216;-84
2023/10/14 08:02:04;;;;;;;3.73;2.33;;;13.30;77.70;;;;;;7817402;22;20288;-83
2023/10/14 08:05:08;;;;;;;4.00;2.90;;;13.30;77.60;;;;;;7789879;22;20277;-84
2023/10/14 08:08:13;;;;;;;4.00;2.70;;;13.40;77.20;;;;;;7816323;22;20271;-82
2023/10/14 08:11:17;;;;;;;2.20;2.20;;;13.50;77.00;;;;;;7817905;22;20215;-83
2023/10/14 08:14:20;;;;;;;3.30;2.93;;;13.60;76.20;;;;;;7816660;22;20355;-85
2023/10/14 08:17:23;;;;;;;2.63;2.47;;;13.80;76.40;;;;;;7817660;22;20288;-83
2023/10/14 08:20:28;;;;;;;2.97;2.50;;;13.90;75.30;;;;;;7819410;22;20199;-84
2023/10/14 08:23:35;;;;;;;5.80;2.83;;;14.10;75.10;;;;;;7808199;22;20212;-85
2023/10/14 08:26:40;;;;;;;2.93;2.50;;;14.30;74.00;;;;;;7818562;22;20222;-84
2023/10/14 08:29:43;;;;;;;2.70;2.50;;;14.40;72.30;;;;;;7818542;22;20208;-84
2023/10/14 08:32:47;;;;;;;2.90;2.70;;;14.30;71.70;;;;;;7815501;22;20231;-85
2023/10/14 08:35:51;;;;;;;6.37;2.77;;;14.30;72.30;;;;;;7821388;22;20243;-85
2023/10/14 08:38:58;;;;;;;4.70;2.80;;;14.30;72.00;;;;;;7820934;22;20227;-86
2023/10/14 08:42:04;;;;;;;6.73;3.37;;;14.40;71.40;;;;;;7819730;22;20218;-85
2023/10/14 08:45:10;;;;;;;3.20;2.30;;;14.40;71.50;;;;;;7819196;22;20239;-84
2023/10/14 08:48:14;;;;;;;3.07;2.63;;;14.40;70.70;;;;;;7802810;22;20713;-84
2023/10/14 08:51:18;;;;;;;4.10;2.90;;;14.50;71.50;;;;;;7818266;22;20289;-85
2023/10/14 08:54:25;;;;;;;3.07;2.70;;;14.50;71.00;;;;;;7821625;22;20287;-85
2023/10/14 08:57:35;;;;;;;9.83;3.20;;;14.50;69.50;;;;;;7828632;22;20210;-82
2023/10/14 09:00:38;;;;;;;8.73;3.13;;;14.30;68.90;;;;;;7825807;22;20212;-85
2023/10/14 09:03:44;;;;;;;4.07;2.80;;;14.40;69.90;;;;;;7826056;22;20218;-84
2023/10/14 09:06:48;;;;;;;5.93;3.13;;;14.40;69.20;;;;;;7824106;22;20212;-80
2023/10/14 09:09:53;;;;;;;4.60;3.13;;;14.50;68.50;;;;;;7817753;22;20263;-84
2023/10/14 09:12:58;;;;;;;6.87;3.17;;;14.60;68.70;;;;;;7816347;22;20745;-84
2023/10/14 09:16:01;;;;;;;9.80;3.43;;;14.80;67.30;;;;;;7817855;22;20208;-84
2023/10/14 09:19:05;;;;;;;8.13;3.40;;;15.00;66.60;;;;;;7817181;22;20212;-83
2023/10/14 09:22:18;;;;;;;5.93;3.10;;;15.00;66.20;;;;;;7821139;22;20258;-85
2023/10/14 09:25:24;;;;;;;7.53;2.97;;;15.00;65.80;;;;;;7824270;22;20216;-85
2023/10/14 09:28:32;;;;;;;7.80;3.00;;;14.70;66.10;;;;;;7821930;22;20215;-83
2023/10/14 09:31:38;;;;;;;4.57;3.00;;;14.70;66.30;;;;;;7817917;22;20228;-84
2023/10/14 09:34:43;;;;;;;6.17;3.23;;;14.60;66.60;;;;;;7816495;22;20219;-85
2023/10/14 09:37:46;;;;;;;7.20;3.13;;;14.70;65.70;;;;;;7819381;22;20848;-84
2023/10/14 09:40:57;;;;;;;6.97;3.07;;;14.80;65.80;;;;;;7818766;22;20948;-83
2023/10/14 09:44:00;;;;;;;3.53;2.57;;;14.90;65.00;;;;;;7819154;22;20293;-84
2023/10/14 09:47:09;;;;;;;4.67;2.90;;;14.90;64.50;;;;;;7818510;22;20582;-84
2023/10/14 09:50:14;;;;;;;7.97;3.50;;;14.90;64.00;;;;;;7818530;22;20246;-86
2023/10/14 09:53:19;;;;;;;7.00;3.27;;;14.70;63.70;;;;;;7817790;22;20227;-85
2023/10/14 09:56:25;;;;;;;5.47;2.90;;;14.60;63.30;;;;;;7816755;22;20228;-83
2023/10/14 09:59:47;;;;;;;7.40;2.77;;;14.70;63.60;;;;;;7816856;22;20250;-85
2023/10/14 10:02:53;;;;;;;4.97;2.87;;;14.90;63.80;;;;;;7818261;22;20223;-83
2023/10/14 10:06:12;;;;;;;5.57;3.23;;;14.90;63.20;;;;;;7817853;22;20283;-83
2023/10/14 10:09:41;;;;;;;6.63;3.57;;;15.00;62.80;;;;;;7817587;22;20269;-75
2023/10/14 10:12:53;;;;;;;7.63;2.80;;;15.00;62.20;;;;;;7816562;22;20239;-80
2023/10/14 10:16:04;;;;;;;4.63;3.00;;;15.10;61.00;;;;;;7815051;22;20238;-84
2023/10/14 10:19:10;;;;;;;4.53;2.97;;;15.20;60.70;;;;;;7809761;22;20215;-86
2023/10/14 10:22:16;;;;;;;4.10;3.00;;;15.40;60.00;;;;;;7819417;22;20204;-85
2023/10/14 10:25:22;;;;;;;4.37;3.00;;;15.60;60.00;;;;;;7817548;22;20209;-84
2023/10/14 10:28:40;;;;;;;8.00;2.67;;;15.80;59.80;;;;;;7817822;22;20204;-85
2023/10/14 10:32:07;;;;;;;4.73;2.67;;;16.00;59.50;;;;;;7818321;22;20211;-82
2023/10/14 10:35:16;;;;;;;6.40;2.77;;;16.10;58.80;;;;;;7815720;22;20208;-84
2023/10/14 10:38:21;;;;;;;3.23;2.77;;;16.40;58.50;;;;;;7816369;22;20223;-82
2023/10/14 10:41:27;;;;;;;5.27;2.80;;;16.50;58.00;;;;;;7813409;22;20219;-80
2023/10/14 10:44:34;;;;;;;4.30;2.70;;;16.20;58.60;;;;;;7813897;22;20212;-81
2023/10/14 10:47:51;;;;;;;3.93;2.53;;;16.10;57.60;;;;;;7816832;22;20215;-81
2023/10/14 10:50:57;;;;;;;6.57;2.80;;;16.00;58.60;;;;;;7815758;22;20213;-80
2023/10/14 10:54:00;;;;;;;4.23;3.13;;;16.10;57.70;;;;;;7816503;22;20219;-81
2023/10/14 10:57:04;;;;;;;10.00;3.23;;;16.10;57.80;;;;;;7815903;22;20220;-82
2023/10/14 11:00:17;;;;;;;10.43;3.40;;;16.00;57.50;;;;;;7816317;22;20208;-83
2023/10/14 11:03:23;;;;;;;5.50;3.30;;;16.00;57.40;;;;;;7816799;22;20208;-83
2023/10/14 11:06:29;;;;;;;4.17;2.73;;;16.10;57.40;;;;;;7816830;22;20203;-83
2023/10/14 11:09:39;;;;;;;6.27;3.03;;;16.20;56.40;;;;;;7817160;22;20219;-84
2023/10/14 11:12:55;;;;;;;5.30;2.77;;;16.40;56.60;;;;;;7816427;22;20216;-83
2023/10/14 11:16:11;;;;;;;8.13;3.20;;;16.40;55.80;;;;;;7816941;22;20208;-84
2023/10/14 11:19:15;;;;;;;10.13;4.00;;;16.00;56.00;;;;;;7816379;22;20216;-85
2023/10/14 11:22:20;;;;;;;8.00;3.73;;;15.80;56.00;;;;;;7814458;22;20208;-86
2023/10/14 11:25:23;;;;;;;7.07;2.97;;;15.50;56.30;;;;;;7814161;22;20215;-85
2023/10/14 11:28:30;;;;;;;8.03;3.13;;;15.40;56.10;;;;;;7814687;22;20207;-84
2023/10/14 11:31:36;;;;;;;8.20;4.30;;;15.30;56.20;;;;;;7829245;22;20215;-83
2023/10/14 11:34:41;;;;;;;7.83;3.20;;;15.20;57.40;;;;;;7852646;22;20200;-86
2023/10/14 11:37:50;;;;;;;11.07;3.27;;;15.30;57.40;;;;;;7812303;22;20203;-86
2023/10/14 11:41:02;;;;;;;5.50;2.93;;;15.60;56.70;;;;;;7835207;22;20203;-86
2023/10/14 11:44:06;;;;;;;5.67;3.13;;;16.10;57.20;;;;;;7852614;22;20207;-84
2023/10/14 11:47:16;;;;;;;5.90;2.63;;;16.50;55.00;;;;;;7852381;22;20200;-84
2023/10/14 11:50:23;;;;;;;6.97;2.87;;;16.20;53.20;;;;;;7859352;22;20212;-85
2023/10/14 11:53:31;;;;;;;3.87;2.60;;;16.10;54.00;;;;;;7858259;22;20196;-86
2023/10/14 11:56:36;;;;;;;4.90;2.73;;;16.40;54.90;;;;;;7859201;22;20251;-86
2023/10/14 11:59:41;;;;;;;7.87;2.83;;;16.70;53.90;;;;;;7857418;22;20208;-85
2023/10/14 12:02:46;;;;;;;5.87;3.03;;;16.50;53.10;;;;;;7859838;22;20215;-84
2023/10/14 12:05:51;;;;;;;7.20;3.37;;;16.50;52.80;;;;;;7858334;22;20216;-85
2023/10/14 12:08:55;;;;;;;3.93;2.37;;;16.40;53.50;;;;;;7818447;22;20251;-84
2023/10/14 12:11:58;;;;;;;5.07;2.67;;;15.80;52.40;;;;;;7844605;22;20200;-86
2023/10/14 12:15:05;;;;;;;9.97;3.13;;;15.70;54.00;;;;;;7859641;22;20196;-84
2023/10/14 12:18:13;;;;;;;3.97;2.70;;;15.60;54.80;;;;;;7843445;22;20237;-86
2023/10/14 12:21:17;;;;;;;7.13;2.83;;;15.50;55.60;;;;;;7858576;22;20188;-85
2023/10/14 12:24:20;;;;;;;7.03;3.10;;;15.50;55.60;;;;;;7859420;22;20207;-86
2023/10/14 12:27:25;;;;;;;9.17;3.40;;;15.50;55.60;;;;;;7833795;22;20251;-87
2023/10/14 12:30:39;;;;;;;4.97;2.80;;;15.60;54.90;;;;;;7860228;22;20264;-84
2023/10/14 12:33:46;;;;;;;5.67;3.03;;;16.00;54.70;;;;;;7857783;22;20238;-85
2023/10/14 12:36:52;;;;;;;5.97;2.67;;;16.40;55.30;;;;;;7860025;22;20192;-87
2023/10/14 12:40:04;;;;;;;7.13;2.80;;;16.40;54.20;;;;;;7858149;22;20267;-86
2023/10/14 12:43:09;;;;;;;7.67;2.87;;;16.60;54.80;;;;;;7859249;22;20211;-83
2023/10/14 12:46:14;;;;;;;3.33;2.50;;;16.60;52.20;;;;;;7795098;22;20232;-85
2023/10/14 12:49:20;;;;;;;6.03;2.87;;;16.60;53.20;;;;;;7773450;22;20201;-85
2023/10/14 12:52:25;;;;;;;6.80;3.30;;;16.40;52.50;;;;;;7782944;22;20204;-87
2023/10/14 12:55:30;;;;;;;6.00;2.90;;;16.30;53.00;;;;;;7749293;22;20213;-88
2023/10/14 12:58:35;;;;;;;7.77;3.30;;;16.20;53.20;;;;;;7762584;22;20194;-82
2023/10/14 13:01:53;;;;;;;6.13;3.47;;;16.00;53.70;;;;;;7756505;23;20237;-83
2023/10/14 13:05:02;;;;;;;8.63;3.10;;;16.00;54.00;;;;;;7708172;23;20214;-85
2023/10/14 13:08:10;;;;;;;9.17;3.00;;;16.10;53.00;;;;;;7749682;23;20295;-83
2023/10/14 13:11:17;;;;;;;3.70;2.77;;;16.10;53.50;;;;;;7743552;23;20730;-84
2023/10/14 13:14:26;;;;;;;4.93;3.40;;;16.20;53.90;;;;;;7727324;23;20217;-84
2023/10/14 13:17:35;;;;;;;5.40;3.30;;;16.10;53.90;;;;;;7750667;23;20807;-88
2023/10/14 13:20:40;;;;;;;5.17;2.97;;;16.00;53.40;;;;;;7756442;23;20225;-86
2023/10/14 13:23:43;;;;;;;3.37;2.43;;;15.70;54.10;;;;;;7744484;23;20836;-85
2023/10/14 13:26:48;;;;;;;6.43;2.83;;;15.80;53.70;;;;;;7746177;23;20271;-84
2023/10/14 13:29:52;;;;;;;5.93;3.20;;;16.00;54.50;;;;;;7746350;23;20248;-84
2023/10/14 13:32:56;;;;;;;10.93;3.10;;;16.20;54.00;;;;;;7746234;23;20571;-84
2023/10/14 13:36:01;;;;;;;8.83;3.30;;;16.20;53.60;;;;;;7704328;23;20213;-84
2023/10/14 13:39:07;;;;;;;5.93;3.07;;;16.10;54.20;;;;;;7745722;23;20210;-85
2023/10/14 13:42:11;;;;;;;4.97;3.00;;;16.00;54.00;;;;;;7743817;23;20220;-85
2023/10/14 13:45:19;;;;;;;4.10;2.93;;;16.00;52.80;;;;;;7679181;23;20225;-85
2023/10/14 13:48:24;;;;;;;5.97;2.93;;;16.00;53.50;;;;;;7735123;23;20209;-84
2023/10/14 13:51:32;;;;;;;6.33;2.83;;;15.90;53.80;;;;;;7714645;23;20206;-84
2023/10/14 13:54:41;;;;;;;6.90;3.10;;;15.60;52.80;;;;;;7720905;23;20217;-86
2023/10/14 13:57:46;;;;;;;7.10;3.60;;;15.60;53.20;;;;;;7695443;23;20234;-86
2023/10/14 14:00:56;;;;;;;8.30;3.20;;;15.50;53.70;;;;;;7745611;23;20237;-84
2023/10/14 14:04:01;;;;;;;4.20;2.87;;;15.40;53.30;;;;;;7742549;23;20386;-85
2023/10/14 14:07:07;;;;;;;10.90;3.50;;;15.30;53.90;;;;;;7729389;23;20205;-85
2023/10/14 14:10:16;;;;;;;5.73;3.13;;;15.20;54.00;;;;;;7704577;23;20273;-84
2023/10/14 14:13:20;;;;;;;8.03;2.93;;;15.20;53.90;;;;;;7678153;23;20237;-86
2023/10/14 14:16:25;;;;;;;4.70;2.90;;;15.20;54.80;;;;;;7736614;23;20221;-85
2023/10/14 14:19:31;;;;;;;5.70;2.93;;;15.20;54.40;;;;;;7745484;23;20209;-85
2023/10/14 14:22:37;;;;;;;6.97;3.17;;;15.20;55.20;;;;;;7744917;23;20444;-86
2023/10/14 14:25:40;;;;;;;7.00;3.20;;;15.20;56.00;;;;;;7743003;23;20228;-83
2023/10/14 14:28:45;;;;;;;10.10;3.53;;;15.00;55.50;;;;;;7746340;23;20216;-83
2023/10/14 14:31:51;;;;;;;9.03;3.23;;;15.00;55.20;;;;;;7745760;23;20229;-84
2023/10/14 14:34:55;;;;;;;4.87;3.30;;;15.00;55.00;;;;;;7744722;23;20218;-86
2023/10/14 14:38:01;;;;;;;7.37;3.27;;;14.80;54.50;;;;;;7704775;23;20220;-84
2023/10/14 14:41:04;;;;;;;5.33;2.83;;;14.70;55.70;;;;;;7707492;23;20244;-87
2023/10/14 14:44:08;;;;;;;6.47;2.80;;;14.50;57.60;;;;;;7719741;23;20217;-87
2023/10/14 14:47:14;;;;;;;2.77;2.67;;;14.20;59.90;;;;;;7729228;23;20264;-88
2023/10/14 14:50:19;;;;;;;8.87;2.60;;;13.90;61.90;;;;;;7746057;23;20571;-87
2023/10/14 14:53:25;;;;;;;3.70;2.73;;;13.60;62.00;;;;;;7710234;23;20214;-88
2023/10/14 14:56:30;;;;;;;2.97;2.30;;;13.30;62.90;;;;;;7725351;23;20209;-85
2023/10/14 14:59:42;;;;;;;7.23;2.30;;;13.10;63.30;;;;;;7739294;23;20209;-84
2023/10/14 15:02:46;;;;;;;2.87;2.43;;;13.00;63.30;;;;;;7742053;23;20217;-85
2023/10/14 15:05:51;;;;;;;2.60;2.40;;;13.10;63.70;;;;;;7743373;23;20602;-85
2023/10/14 15:08:58;;;;;;;4.70;2.63;;;13.10;64.10;;;;;;7699871;23;20221;-85
2023/10/14 15:12:05;;;;;;;3.00;2.70;;;13.10;63.40;;;;;;7703768;23;20224;-86
2023/10/14 15:15:09;;;;;;;3.23;2.70;;;13.00;63.50;;;;;;7741609;23;20564;-85
2023/10/14 15:18:13;;;;;;;3.90;2.60;;;12.90;62.80;;;;;;7740366;23;20216;-85
2023/10/14 15:21:18;;;;;;;5.43;2.93;;;12.80;63.70;;;;;;7744537;23;20216;-84
2023/10/14 15:24:25;;;;;;;3.17;2.67;;;12.70;63.60;;;;;;7742658;23;20786;-84
2023/10/14 15:27:30;;;;;;;3.37;2.37;;;12.70;63.60;;;;;;7741887;23;20205;-85
2023/10/14 15:30:35;;;;;;;2.93;2.67;;;12.50;64.00;;;;;;7741797;23;20639;-83
2023/10/14 15:33:38;;;;;;;7.07;3.23;;;12.50;63.90;;;;;;7741712;23;20687;-82
2023/10/14 15:36:43;;;;;;;7.10;2.77;;;12.50;63.20;;;;;;7742311;23;20209;-84
2023/10/14 15:39:56;;;;;;;3.23;2.67;;;12.50;63.70;;;;;;7740750;23;20217;-83
2023/10/14 15:43:00;;;;;;;5.00;2.80;;;12.50;63.50;;;;;;7739703;23;20554;-86
2023/10/14 15:46:05;;;;;;;4.50;2.90;;;12.50;63.20;;;;;;7744134;23;20238;-83
2023/10/14 15:49:09;;;;;;;5.27;2.90;;;12.50;63.00;;;;;;7742701;23;20212;-82
2023/10/14 15:52:12;;;;;;;4.17;2.90;;;12.50;62.80;;;;;;7739695;23;20214;-83
2023/10/14 15:55:21;;;;;;;2.80;2.60;;;12.50;62.00;;;;;;7740285;23;20912;-84
2023/10/14 15:58:27;;;;;;;3.43;2.90;;;12.50;62.50;;;;;;7743242;23;20220;-87
2023/10/14 16:01:36;;;;;;;8.00;3.27;;;12.40;63.70;;;;;;7740169;23;20240;-85
2023/10/14 16:04:40;;;;;;;6.77;3.00;;;12.30;63.30;;;;;;7741045;23;20213;-83
2023/10/14 16:07:43;;;;;;;4.00;2.70;;;12.30;62.30;;;;;;7740134;23;25034;-84
2023/10/14 16:10:48;;;;;;;8.27;3.00;;;12.20;62.80;;;;;;7743159;23;20216;-85